sensor_id;sensor_type;location;lat;lon;timestamp;P1;durP1;ratioP1;P2;durP2;ratioP2
55003;SDS011;40900;52.710;6.438;2023-03-31T00:02:10;30.95;;;5.32;;
55003;SDS011;40900;52.710;6.438;2023-03-31T00:04:39;30.95;;;6.28;;
55003;SDS011;40900;52.710;6.438;2023-03-31T00:07:13;23.45;;;5.07;;
55003;SDS011;40900;52.710;6.438;2023-03-31T00:09:40;30.83;;;5.68;;
55003;SDS011;40900;52.710;6.438;2023-03-31T00:12:10;30.85;;;5.22;;
55003;SDS011;40900;52.710;6.438;2023-03-31T00:14:37;20.15;;;4.80;;
55003;SDS011;40900;52.710;6.438;2023-03-31T00:17:02;25.30;;;4.95;;
55003;SDS011;40900;52.710;6.438;2023-03-31T00:19:29;26.65;;;5.35;;
55003;SDS011;40900;52.710;6.438;2023-03-31T00:21:57;28.27;;;6.38;;
55003;SDS011;40900;52.710;6.438;2023-03-31T00:24:27;28.08;;;5.00;;
55003;SDS011;40900;52.710;6.438;2023-03-31T00:27:00;25.70;;;5.47;;
55003;SDS011;40900;52.710;6.438;2023-03-31T00:29:26;27.35;;;5.22;;
55003;SDS011;40900;52.710;6.438;2023-03-31T00:31:52;25.67;;;4.80;;
55003;SDS011;40900;52.710;6.438;2023-03-31T00:34:19;31.70;;;5.97;;
55003;SDS011;40900;52.710;6.438;2023-03-31T00:36:45;25.63;;;3.95;;
55003;SDS011;40900;52.710;6.438;2023-03-31T00:39:11;30.73;;;5.25;;
55003;SDS011;40900;52.710;6.438;2023-03-31T00:41:42;22.40;;;5.15;;
55003;SDS011;40900;52.710;6.438;2023-03-31T00:44:19;25.08;;;4.72;;
55003;SDS011;40900;52.710;6.438;2023-03-31T00:52:25;31.10;;;5.30;;
55003;SDS011;40900;52.710;6.438;2023-03-31T00:57:25;32.40;;;5.70;;
55003;SDS011;40900;52.710;6.438;2023-03-31T01:00:00;27.52;;;4.63;;
55003;SDS011;40900;52.710;6.438;2023-03-31T01:02:38;23.38;;;4.82;;
55003;SDS011;40900;52.710;6.438;2023-03-31T01:05:05;28.85;;;4.57;;
55003;SDS011;40900;52.710;6.438;2023-03-31T01:07:43;25.77;;;4.60;;
55003;SDS011;40900;52.710;6.438;2023-03-31T01:10:12;22.55;;;5.43;;
55003;SDS011;40900;52.710;6.438;2023-03-31T01:12:41;29.50;;;6.10;;
55003;SDS011;40900;52.710;6.438;2023-03-31T01:15:10;18.63;;;4.15;;
55003;SDS011;40900;52.710;6.438;2023-03-31T01:17:36;18.88;;;4.53;;
55003;SDS011;40900;52.710;6.438;2023-03-31T01:23:18;19.73;;;5.05;;
55003;SDS011;40900;52.710;6.438;2023-03-31T01:33:59;24.85;;;4.72;;
55003;SDS011;40900;52.710;6.438;2023-03-31T01:45:25;20.77;;;4.57;;
55003;SDS011;40900;52.710;6.438;2023-03-31T01:47:55;20.75;;;5.47;;
55003;SDS011;40900;52.710;6.438;2023-03-31T01:52:56;23.05;;;5.07;;
55003;SDS011;40900;52.710;6.438;2023-03-31T01:55:25;19.50;;;4.57;;
55003;SDS011;40900;52.710;6.438;2023-03-31T01:58:02;16.50;;;4.45;;
55003;SDS011;40900;52.710;6.438;2023-03-31T02:00:33;19.00;;;4.43;;
55003;SDS011;40900;52.710;6.438;2023-03-31T02:05:57;24.33;;;4.57;;
55003;SDS011;40900;52.710;6.438;2023-03-31T02:08:30;22.27;;;4.88;;
55003;SDS011;40900;52.710;6.438;2023-03-31T02:11:02;19.80;;;4.53;;
55003;SDS011;40900;52.710;6.438;2023-03-31T02:13:28;19.33;;;4.88;;
55003;SDS011;40900;52.710;6.438;2023-03-31T02:15:59;21.38;;;5.65;;
55003;SDS011;40900;52.710;6.438;2023-03-31T02:18:29;16.77;;;4.95;;
55003;SDS011;40900;52.710;6.438;2023-03-31T02:20:57;18.92;;;4.97;;
55003;SDS011;40900;52.710;6.438;2023-03-31T02:23:25;20.65;;;5.00;;
55003;SDS011;40900;52.710;6.438;2023-03-31T02:26:01;18.25;;;5.35;;
55003;SDS011;40900;52.710;6.438;2023-03-31T02:28:33;22.58;;;4.97;;
55003;SDS011;40900;52.710;6.438;2023-03-31T02:33:40;18.45;;;4.85;;
55003;SDS011;40900;52.710;6.438;2023-03-31T02:36:06;14.52;;;5.03;;
55003;SDS011;40900;52.710;6.438;2023-03-31T02:38:34;14.27;;;4.78;;
55003;SDS011;40900;52.710;6.438;2023-03-31T02:41:03;15.55;;;4.65;;
55003;SDS011;40900;52.710;6.438;2023-03-31T02:43:29;15.43;;;4.93;;
55003;SDS011;40900;52.710;6.438;2023-03-31T02:45:55;19.42;;;5.40;;
55003;SDS011;40900;52.710;6.438;2023-03-31T02:48:25;21.35;;;5.18;;
55003;SDS011;40900;52.710;6.438;2023-03-31T03:15:25;14.55;;;6.07;;
55003;SDS011;40900;52.710;6.438;2023-03-31T03:17:54;19.05;;;5.57;;
55003;SDS011;40900;52.710;6.438;2023-03-31T03:20:22;15.20;;;5.85;;
55003;SDS011;40900;52.710;6.438;2023-03-31T03:22:48;16.15;;;6.18;;
55003;SDS011;40900;52.710;6.438;2023-03-31T03:25:14;17.30;;;5.90;;
55003;SDS011;40900;52.710;6.438;2023-03-31T03:27:41;19.15;;;6.55;;
55003;SDS011;40900;52.710;6.438;2023-03-31T03:30:08;19.98;;;6.70;;
55003;SDS011;40900;52.710;6.438;2023-03-31T03:32:36;17.27;;;6.22;;
55003;SDS011;40900;52.710;6.438;2023-03-31T03:35:02;15.32;;;5.80;;
55003;SDS011;40900;52.710;6.438;2023-03-31T03:37:30;16.00;;;6.43;;
55003;SDS011;40900;52.710;6.438;2023-03-31T03:39:56;11.95;;;5.20;;
55003;SDS011;40900;52.710;6.438;2023-03-31T03:42:22;15.30;;;5.97;;
55003;SDS011;40900;52.710;6.438;2023-03-31T03:44:48;14.18;;;5.15;;
55003;SDS011;40900;52.710;6.438;2023-03-31T03:47:14;16.75;;;6.30;;
55003;SDS011;40900;52.710;6.438;2023-03-31T03:49:39;16.08;;;5.82;;
55003;SDS011;40900;52.710;6.438;2023-03-31T03:52:05;16.38;;;5.38;;
55003;SDS011;40900;52.710;6.438;2023-03-31T03:54:31;17.80;;;6.07;;
55003;SDS011;40900;52.710;6.438;2023-03-31T03:56:57;21.73;;;6.70;;
55003;SDS011;40900;52.710;6.438;2023-03-31T03:59:23;19.75;;;6.25;;
55003;SDS011;40900;52.710;6.438;2023-03-31T04:01:49;16.95;;;5.80;;
55003;SDS011;40900;52.710;6.438;2023-03-31T04:04:15;18.23;;;5.07;;
55003;SDS011;40900;52.710;6.438;2023-03-31T04:06:41;15.63;;;5.65;;
55003;SDS011;40900;52.710;6.438;2023-03-31T04:09:07;19.33;;;5.50;;
55003;SDS011;40900;52.710;6.438;2023-03-31T04:11:33;16.52;;;5.03;;
55003;SDS011;40900;52.710;6.438;2023-03-31T04:13:58;19.23;;;5.15;;
55003;SDS011;40900;52.710;6.438;2023-03-31T04:16:24;18.63;;;5.47;;
55003;SDS011;40900;52.710;6.438;2023-03-31T04:18:50;11.70;;;4.63;;
55003;SDS011;40900;52.710;6.438;2023-03-31T04:21:21;23.60;;;7.25;;
55003;SDS011;40900;52.710;6.438;2023-03-31T04:23:48;17.48;;;5.22;;
55003;SDS011;40900;52.710;6.438;2023-03-31T04:26:22;18.35;;;5.03;;
55003;SDS011;40900;52.710;6.438;2023-03-31T04:28:55;14.52;;;4.90;;
55003;SDS011;40900;52.710;6.438;2023-03-31T04:31:25;15.18;;;5.15;;
55003;SDS011;40900;52.710;6.438;2023-03-31T04:33:54;15.38;;;5.47;;
55003;SDS011;40900;52.710;6.438;2023-03-31T04:36:20;15.45;;;5.20;;
55003;SDS011;40900;52.710;6.438;2023-03-31T04:38:47;17.92;;;4.70;;
55003;SDS011;40900;52.710;6.438;2023-03-31T04:41:20;17.30;;;5.47;;
55003;SDS011;40900;52.710;6.438;2023-03-31T04:43:47;21.17;;;5.32;;
55003;SDS011;40900;52.710;6.438;2023-03-31T04:46:13;14.30;;;5.13;;
55003;SDS011;40900;52.710;6.438;2023-03-31T04:48:39;14.23;;;4.70;;
55003;SDS011;40900;52.710;6.438;2023-03-31T04:51:05;17.02;;;5.00;;
55003;SDS011;40900;52.710;6.438;2023-03-31T04:53:30;18.88;;;5.60;;
55003;SDS011;40900;52.710;6.438;2023-03-31T04:55:56;18.00;;;5.65;;
55003;SDS011;40900;52.710;6.438;2023-03-31T04:58:22;19.20;;;5.80;;
55003;SDS011;40900;52.710;6.438;2023-03-31T05:00:48;13.05;;;5.07;;
55003;SDS011;40900;52.710;6.438;2023-03-31T05:03:13;18.08;;;5.72;;
55003;SDS011;40900;52.710;6.438;2023-03-31T05:05:39;14.60;;;5.68;;
55003;SDS011;40900;52.710;6.438;2023-03-31T05:08:05;12.80;;;5.15;;
55003;SDS011;40900;52.710;6.438;2023-03-31T05:10:31;16.20;;;5.43;;
55003;SDS011;40900;52.710;6.438;2023-03-31T05:12:57;13.75;;;6.07;;
55003;SDS011;40900;52.710;6.438;2023-03-31T05:15:23;18.00;;;5.47;;
55003;SDS011;40900;52.710;6.438;2023-03-31T05:17:49;13.73;;;5.72;;
55003;SDS011;40900;52.710;6.438;2023-03-31T05:20:16;19.65;;;5.65;;
55003;SDS011;40900;52.710;6.438;2023-03-31T05:22:44;18.90;;;5.47;;
55003;SDS011;40900;52.710;6.438;2023-03-31T05:25:10;16.30;;;6.10;;
55003;SDS011;40900;52.710;6.438;2023-03-31T05:27:42;16.38;;;5.35;;
55003;SDS011;40900;52.710;6.438;2023-03-31T05:30:10;12.10;;;6.00;;
55003;SDS011;40900;52.710;6.438;2023-03-31T05:32:36;21.52;;;6.13;;
55003;SDS011;40900;52.710;6.438;2023-03-31T05:35:01;19.90;;;6.53;;
55003;SDS011;40900;52.710;6.438;2023-03-31T05:37:27;16.75;;;6.15;;
55003;SDS011;40900;52.710;6.438;2023-03-31T05:39:53;16.35;;;5.75;;
55003;SDS011;40900;52.710;6.438;2023-03-31T05:42:19;17.65;;;6.47;;
55003;SDS011;40900;52.710;6.438;2023-03-31T05:44:45;14.55;;;6.32;;
55003;SDS011;40900;52.710;6.438;2023-03-31T05:47:11;19.42;;;6.07;;
55003;SDS011;40900;52.710;6.438;2023-03-31T05:49:38;14.43;;;5.80;;
55003;SDS011;40900;52.710;6.438;2023-03-31T05:52:05;16.58;;;6.00;;
55003;SDS011;40900;52.710;6.438;2023-03-31T05:54:31;13.52;;;5.55;;
55003;SDS011;40900;52.710;6.438;2023-03-31T05:56:57;15.48;;;5.75;;
55003;SDS011;40900;52.710;6.438;2023-03-31T05:59:22;20.35;;;5.72;;
55003;SDS011;40900;52.710;6.438;2023-03-31T06:01:49;20.25;;;5.75;;
55003;SDS011;40900;52.710;6.438;2023-03-31T06:04:15;13.27;;;5.35;;
55003;SDS011;40900;52.710;6.438;2023-03-31T06:06:40;17.98;;;5.15;;
55003;SDS011;40900;52.710;6.438;2023-03-31T06:09:07;12.32;;;4.60;;
55003;SDS011;40900;52.710;6.438;2023-03-31T06:11:33;16.92;;;5.88;;
55003;SDS011;40900;52.710;6.438;2023-03-31T06:13:58;17.90;;;5.88;;
55003;SDS011;40900;52.710;6.438;2023-03-31T06:16:24;12.50;;;4.72;;
55003;SDS011;40900;52.710;6.438;2023-03-31T06:18:50;17.58;;;4.65;;
55003;SDS011;40900;52.710;6.438;2023-03-31T06:21:17;14.18;;;4.68;;
55003;SDS011;40900;52.710;6.438;2023-03-31T06:23:44;24.50;;;5.90;;
55003;SDS011;40900;52.710;6.438;2023-03-31T06:26:11;19.25;;;4.97;;
55003;SDS011;40900;52.710;6.438;2023-03-31T06:28:42;19.42;;;5.50;;
55003;SDS011;40900;52.710;6.438;2023-03-31T06:31:10;19.13;;;5.70;;
55003;SDS011;40900;52.710;6.438;2023-03-31T06:33:38;24.13;;;5.30;;
55003;SDS011;40900;52.710;6.438;2023-03-31T06:36:05;15.50;;;5.72;;
55003;SDS011;40900;52.710;6.438;2023-03-31T06:38:32;18.38;;;4.93;;
55003;SDS011;40900;52.710;6.438;2023-03-31T06:40:59;17.45;;;5.35;;
55003;SDS011;40900;52.710;6.438;2023-03-31T06:43:25;14.48;;;4.70;;
55003;SDS011;40900;52.710;6.438;2023-03-31T06:45:54;12.70;;;5.05;;
55003;SDS011;40900;52.710;6.438;2023-03-31T06:48:24;17.70;;;4.90;;
55003;SDS011;40900;52.710;6.438;2023-03-31T06:50:51;10.60;;;4.18;;
55003;SDS011;40900;52.710;6.438;2023-03-31T06:53:18;12.85;;;3.97;;
55003;SDS011;40900;52.710;6.438;2023-03-31T06:55:44;17.10;;;4.20;;
55003;SDS011;40900;52.710;6.438;2023-03-31T06:58:10;14.32;;;4.53;;
55003;SDS011;40900;52.710;6.438;2023-03-31T07:00:36;14.60;;;4.45;;
55003;SDS011;40900;52.710;6.438;2023-03-31T07:03:02;14.27;;;4.55;;
55003;SDS011;40900;52.710;6.438;2023-03-31T07:05:29;15.00;;;4.45;;
55003;SDS011;40900;52.710;6.438;2023-03-31T07:07:55;13.90;;;4.25;;
55003;SDS011;40900;52.710;6.438;2023-03-31T07:10:24;19.77;;;4.80;;
55003;SDS011;40900;52.710;6.438;2023-03-31T07:12:51;13.50;;;5.10;;
55003;SDS011;40900;52.710;6.438;2023-03-31T07:15:17;23.40;;;6.10;;
55003;SDS011;40900;52.710;6.438;2023-03-31T07:17:43;17.67;;;5.55;;
55003;SDS011;40900;52.710;6.438;2023-03-31T07:20:09;21.95;;;5.90;;
55003;SDS011;40900;52.710;6.438;2023-03-31T07:22:37;16.67;;;5.70;;
55003;SDS011;40900;52.710;6.438;2023-03-31T07:25:05;21.00;;;5.82;;
55003;SDS011;40900;52.710;6.438;2023-03-31T07:27:32;18.08;;;5.47;;
55003;SDS011;40900;52.710;6.438;2023-03-31T07:29:57;15.93;;;5.70;;
55003;SDS011;40900;52.710;6.438;2023-03-31T07:32:23;15.63;;;4.85;;
55003;SDS011;40900;52.710;6.438;2023-03-31T07:34:49;15.43;;;4.95;;
55003;SDS011;40900;52.710;6.438;2023-03-31T07:37:15;14.45;;;3.88;;
55003;SDS011;40900;52.710;6.438;2023-03-31T07:39:41;17.33;;;4.40;;
55003;SDS011;40900;52.710;6.438;2023-03-31T07:42:06;17.85;;;5.03;;
55003;SDS011;40900;52.710;6.438;2023-03-31T07:44:35;16.23;;;4.15;;
55003;SDS011;40900;52.710;6.438;2023-03-31T07:47:01;25.85;;;5.28;;
55003;SDS011;40900;52.710;6.438;2023-03-31T07:49:33;13.55;;;4.07;;
55003;SDS011;40900;52.710;6.438;2023-03-31T07:51:59;15.15;;;4.15;;
55003;SDS011;40900;52.710;6.438;2023-03-31T07:54:26;15.55;;;3.90;;
55003;SDS011;40900;52.710;6.438;2023-03-31T07:56:51;15.35;;;4.07;;
55003;SDS011;40900;52.710;6.438;2023-03-31T07:59:17;13.90;;;3.47;;
55003;SDS011;40900;52.710;6.438;2023-03-31T08:01:43;16.13;;;3.80;;
55003;SDS011;40900;52.710;6.438;2023-03-31T08:04:10;18.45;;;4.32;;
55003;SDS011;40900;52.710;6.438;2023-03-31T08:06:37;12.68;;;4.15;;
55003;SDS011;40900;52.710;6.438;2023-03-31T08:09:03;14.40;;;4.45;;
55003;SDS011;40900;52.710;6.438;2023-03-31T08:11:32;14.02;;;3.42;;
55003;SDS011;40900;52.710;6.438;2023-03-31T08:13:58;13.23;;;4.00;;
55003;SDS011;40900;52.710;6.438;2023-03-31T08:16:24;13.18;;;3.83;;
55003;SDS011;40900;52.710;6.438;2023-03-31T08:18:50;12.50;;;3.95;;
55003;SDS011;40900;52.710;6.438;2023-03-31T08:21:16;15.15;;;3.40;;
55003;SDS011;40900;52.710;6.438;2023-03-31T08:23:42;12.85;;;3.13;;
55003;SDS011;40900;52.710;6.438;2023-03-31T08:26:08;12.32;;;3.33;;
55003;SDS011;40900;52.710;6.438;2023-03-31T08:28:38;9.20;;;3.70;;
55003;SDS011;40900;52.710;6.438;2023-03-31T08:31:05;11.85;;;3.95;;
55003;SDS011;40900;52.710;6.438;2023-03-31T08:33:32;13.88;;;3.75;;
55003;SDS011;40900;52.710;6.438;2023-03-31T08:36:04;10.88;;;3.30;;
55003;SDS011;40900;52.710;6.438;2023-03-31T08:38:33;12.05;;;3.08;;
55003;SDS011;40900;52.710;6.438;2023-03-31T08:41:02;8.90;;;3.42;;
55003;SDS011;40900;52.710;6.438;2023-03-31T08:43:31;13.68;;;3.40;;
55003;SDS011;40900;52.710;6.438;2023-03-31T08:46:01;6.63;;;2.58;;
55003;SDS011;40900;52.710;6.438;2023-03-31T08:48:29;8.50;;;2.55;;
55003;SDS011;40900;52.710;6.438;2023-03-31T08:51:11;11.70;;;3.40;;
55003;SDS011;40900;52.710;6.438;2023-03-31T08:53:49;11.77;;;3.15;;
55003;SDS011;40900;52.710;6.438;2023-03-31T08:56:41;11.82;;;3.17;;
55003;SDS011;40900;52.710;6.438;2023-03-31T08:59:44;8.93;;;2.67;;
55003;SDS011;40900;52.710;6.438;2023-03-31T09:13:09;11.48;;;2.75;;
55003;SDS011;40900;52.710;6.438;2023-03-31T09:18:42;12.70;;;3.22;;
55003;SDS011;40900;52.710;6.438;2023-03-31T09:21:18;10.60;;;2.85;;
55003;SDS011;40900;52.710;6.438;2023-03-31T09:23:49;6.95;;;2.72;;
55003;SDS011;40900;52.710;6.438;2023-03-31T09:26:26;11.02;;;3.00;;
55003;SDS011;40900;52.710;6.438;2023-03-31T09:29:01;9.77;;;2.75;;
55003;SDS011;40900;52.710;6.438;2023-03-31T09:31:31;8.38;;;2.70;;
55003;SDS011;40900;52.710;6.438;2023-03-31T09:33:58;8.35;;;2.60;;
55003;SDS011;40900;52.710;6.438;2023-03-31T09:36:26;10.93;;;3.67;;
55003;SDS011;40900;52.710;6.438;2023-03-31T09:38:52;9.48;;;2.70;;
55003;SDS011;40900;52.710;6.438;2023-03-31T09:41:18;9.63;;;2.80;;
55003;SDS011;40900;52.710;6.438;2023-03-31T09:43:45;6.90;;;2.65;;
55003;SDS011;40900;52.710;6.438;2023-03-31T09:46:19;10.90;;;2.75;;
55003;SDS011;40900;52.710;6.438;2023-03-31T09:49:03;10.65;;;2.88;;
55003;SDS011;40900;52.710;6.438;2023-03-31T09:51:39;8.52;;;2.28;;
55003;SDS011;40900;52.710;6.438;2023-03-31T09:54:21;8.85;;;2.42;;
55003;SDS011;40900;52.710;6.438;2023-03-31T09:57:14;7.75;;;2.70;;
55003;SDS011;40900;52.710;6.438;2023-03-31T09:59:49;6.10;;;2.50;;
55003;SDS011;40900;52.710;6.438;2023-03-31T10:02:33;12.07;;;2.92;;
55003;SDS011;40900;52.710;6.438;2023-03-31T10:05:02;8.80;;;2.17;;
55003;SDS011;40900;52.710;6.438;2023-03-31T10:07:29;6.55;;;2.50;;
55003;SDS011;40900;52.710;6.438;2023-03-31T10:09:55;9.98;;;3.03;;
55003;SDS011;40900;52.710;6.438;2023-03-31T10:12:23;7.00;;;2.10;;
55003;SDS011;40900;52.710;6.438;2023-03-31T10:14:52;8.45;;;2.53;;
55003;SDS011;40900;52.710;6.438;2023-03-31T10:17:26;7.97;;;2.30;;
55003;SDS011;40900;52.710;6.438;2023-03-31T10:19:57;8.30;;;2.40;;
55003;SDS011;40900;52.710;6.438;2023-03-31T10:24:54;4.05;;;2.28;;
55003;SDS011;40900;52.710;6.438;2023-03-31T10:27:40;8.43;;;2.92;;
55003;SDS011;40900;52.710;6.438;2023-03-31T10:30:08;9.07;;;2.67;;
55003;SDS011;40900;52.710;6.438;2023-03-31T10:32:42;8.68;;;2.83;;
55003;SDS011;40900;52.710;6.438;2023-03-31T10:35:20;8.00;;;2.40;;
55003;SDS011;40900;52.710;6.438;2023-03-31T10:37:47;8.27;;;2.40;;
55003;SDS011;40900;52.710;6.438;2023-03-31T10:40:24;8.18;;;2.42;;
55003;SDS011;40900;52.710;6.438;2023-03-31T10:43:08;8.90;;;3.05;;
55003;SDS011;40900;52.710;6.438;2023-03-31T10:45:46;6.50;;;2.50;;
55003;SDS011;40900;52.710;6.438;2023-03-31T10:48:26;8.85;;;2.70;;
55003;SDS011;40900;52.710;6.438;2023-03-31T10:50:52;8.05;;;2.80;;
55003;SDS011;40900;52.710;6.438;2023-03-31T10:53:19;7.88;;;2.38;;
55003;SDS011;40900;52.710;6.438;2023-03-31T10:55:49;9.90;;;3.33;;
55003;SDS011;40900;52.710;6.438;2023-03-31T11:09:10;9.10;;;2.97;;
55003;SDS011;40900;52.710;6.438;2023-03-31T11:14:44;6.78;;;2.58;;
55003;SDS011;40900;52.710;6.438;2023-03-31T11:20:49;10.88;;;3.47;;
55003;SDS011;40900;52.710;6.438;2023-03-31T11:23:25;13.32;;;3.35;;
55003;SDS011;40900;52.710;6.438;2023-03-31T11:26:21;12.82;;;3.53;;
55003;SDS011;40900;52.710;6.438;2023-03-31T11:42:22;10.52;;;3.97;;
55003;SDS011;40900;52.710;6.438;2023-03-31T11:44:52;20.00;;;5.38;;
55003;SDS011;40900;52.710;6.438;2023-03-31T11:47:25;14.90;;;4.38;;
55003;SDS011;40900;52.710;6.438;2023-03-31T11:49:59;14.90;;;4.10;;
55003;SDS011;40900;52.710;6.438;2023-03-31T11:52:36;11.85;;;3.60;;
55003;SDS011;40900;52.710;6.438;2023-03-31T11:55:20;13.02;;;3.70;;
55003;SDS011;40900;52.710;6.438;2023-03-31T12:05:37;16.42;;;4.13;;
55003;SDS011;40900;52.710;6.438;2023-03-31T12:08:15;13.63;;;3.70;;
55003;SDS011;40900;52.710;6.438;2023-03-31T12:19:16;17.55;;;4.50;;
55003;SDS011;40900;52.710;6.438;2023-03-31T12:21:55;16.73;;;4.45;;
55003;SDS011;40900;52.710;6.438;2023-03-31T12:24:43;16.23;;;4.25;;
55003;SDS011;40900;52.710;6.438;2023-03-31T12:27:16;16.10;;;4.15;;
55003;SDS011;40900;52.710;6.438;2023-03-31T12:29:56;12.63;;;3.67;;
55003;SDS011;40900;52.710;6.438;2023-03-31T12:32:29;14.52;;;3.90;;
55003;SDS011;40900;52.710;6.438;2023-03-31T12:45:41;18.58;;;4.85;;
55003;SDS011;40900;52.710;6.438;2023-03-31T12:59:35;15.23;;;3.55;;
55003;SDS011;40900;52.710;6.438;2023-03-31T13:04:37;17.15;;;4.43;;
55003;SDS011;40900;52.710;6.438;2023-03-31T13:07:03;19.30;;;4.43;;
55003;SDS011;40900;52.710;6.438;2023-03-31T13:09:43;19.70;;;4.15;;
55003;SDS011;40900;52.710;6.438;2023-03-31T13:12:15;16.77;;;3.22;;
55003;SDS011;40900;52.710;6.438;2023-03-31T13:14:44;16.42;;;4.20;;
55003;SDS011;40900;52.710;6.438;2023-03-31T13:19:54;17.65;;;3.38;;
55003;SDS011;40900;52.710;6.438;2023-03-31T13:22:39;15.40;;;3.45;;
55003;SDS011;40900;52.710;6.438;2023-03-31T13:30:57;16.02;;;3.70;;
55003;SDS011;40900;52.710;6.438;2023-03-31T13:47:47;11.10;;;2.88;;
55003;SDS011;40900;52.710;6.438;2023-03-31T14:04:43;11.63;;;3.00;;
55003;SDS011;40900;52.710;6.438;2023-03-31T14:07:43;15.50;;;3.22;;
55003;SDS011;40900;52.710;6.438;2023-03-31T14:10:33;10.40;;;3.00;;
55003;SDS011;40900;52.710;6.438;2023-03-31T14:13:05;15.00;;;3.70;;
55003;SDS011;40900;52.710;6.438;2023-03-31T14:15:31;11.40;;;2.95;;
55003;SDS011;40900;52.710;6.438;2023-03-31T14:17:59;11.25;;;3.10;;
55003;SDS011;40900;52.710;6.438;2023-03-31T14:22:58;16.10;;;3.47;;
55003;SDS011;40900;52.710;6.438;2023-03-31T14:25:39;12.48;;;3.38;;
55003;SDS011;40900;52.710;6.438;2023-03-31T14:38:34;12.00;;;3.72;;
55003;SDS011;40900;52.710;6.438;2023-03-31T14:41:01;13.32;;;3.17;;
55003;SDS011;40900;52.710;6.438;2023-03-31T14:43:31;12.57;;;3.28;;
55003;SDS011;40900;52.710;6.438;2023-03-31T14:46:01;12.18;;;2.83;;
55003;SDS011;40900;52.710;6.438;2023-03-31T14:48:29;12.45;;;3.10;;
55003;SDS011;40900;52.710;6.438;2023-03-31T14:50:59;14.20;;;3.20;;
55003;SDS011;40900;52.710;6.438;2023-03-31T14:53:26;12.60;;;2.95;;
55003;SDS011;40900;52.710;6.438;2023-03-31T14:56:03;8.90;;;2.80;;
55003;SDS011;40900;52.710;6.438;2023-03-31T14:58:33;9.48;;;2.88;;
55003;SDS011;40900;52.710;6.438;2023-03-31T15:01:03;12.68;;;2.95;;
55003;SDS011;40900;52.710;6.438;2023-03-31T15:03:34;15.65;;;3.42;;
55003;SDS011;40900;52.710;6.438;2023-03-31T15:06:05;12.70;;;3.00;;
55003;SDS011;40900;52.710;6.438;2023-03-31T15:08:32;11.60;;;2.92;;
55003;SDS011;40900;52.710;6.438;2023-03-31T15:11:01;12.38;;;3.22;;
55003;SDS011;40900;52.710;6.438;2023-03-31T15:15:58;12.90;;;3.90;;
55003;SDS011;40900;52.710;6.438;2023-03-31T15:18:42;11.60;;;3.13;;
55003;SDS011;40900;52.710;6.438;2023-03-31T15:21:09;11.43;;;3.58;;
55003;SDS011;40900;52.710;6.438;2023-03-31T15:23:45;14.13;;;3.50;;
55003;SDS011;40900;52.710;6.438;2023-03-31T15:26:11;14.15;;;3.53;;
55003;SDS011;40900;52.710;6.438;2023-03-31T15:29:02;16.15;;;3.60;;
55003;SDS011;40900;52.710;6.438;2023-03-31T15:31:34;18.13;;;4.13;;
55003;SDS011;40900;52.710;6.438;2023-03-31T15:34:11;17.13;;;3.83;;
55003;SDS011;40900;52.710;6.438;2023-03-31T15:36:57;22.05;;;4.03;;
55003;SDS011;40900;52.710;6.438;2023-03-31T15:39:25;13.63;;;3.80;;
55003;SDS011;40900;52.710;6.438;2023-03-31T15:41:56;17.52;;;4.15;;
55003;SDS011;40900;52.710;6.438;2023-03-31T15:47:16;14.85;;;3.90;;
55003;SDS011;40900;52.710;6.438;2023-03-31T15:49:48;19.52;;;4.55;;
55003;SDS011;40900;52.710;6.438;2023-03-31T15:52:22;21.33;;;4.68;;
55003;SDS011;40900;52.710;6.438;2023-03-31T15:54:58;19.75;;;3.95;;
55003;SDS011;40900;52.710;6.438;2023-03-31T15:57:32;13.90;;;3.83;;
55003;SDS011;40900;52.710;6.438;2023-03-31T15:59:59;13.10;;;2.97;;
55003;SDS011;40900;52.710;6.438;2023-03-31T16:02:44;11.15;;;3.30;;
55003;SDS011;40900;52.710;6.438;2023-03-31T16:08:00;13.85;;;2.60;;
55003;SDS011;40900;52.710;6.438;2023-03-31T16:10:27;13.98;;;2.92;;
55003;SDS011;40900;52.710;6.438;2023-03-31T16:13:01;12.50;;;2.80;;
55003;SDS011;40900;52.710;6.438;2023-03-31T16:15:30;13.38;;;3.00;;
55003;SDS011;40900;52.710;6.438;2023-03-31T16:18:06;12.02;;;2.65;;
55003;SDS011;40900;52.710;6.438;2023-03-31T16:20:36;10.40;;;2.80;;
55003;SDS011;40900;52.710;6.438;2023-03-31T16:23:25;9.88;;;2.92;;
55003;SDS011;40900;52.710;6.438;2023-03-31T16:25:54;7.32;;;2.30;;
55003;SDS011;40900;52.710;6.438;2023-03-31T16:28:22;13.30;;;2.88;;
55003;SDS011;40900;52.710;6.438;2023-03-31T16:30:51;8.90;;;2.53;;
55003;SDS011;40900;52.710;6.438;2023-03-31T16:33:19;8.85;;;2.10;;
55003;SDS011;40900;52.710;6.438;2023-03-31T16:35:48;7.28;;;2.65;;
55003;SDS011;40900;52.710;6.438;2023-03-31T16:38:17;10.95;;;2.40;;
55003;SDS011;40900;52.710;6.438;2023-03-31T16:40:47;9.68;;;2.50;;
55003;SDS011;40900;52.710;6.438;2023-03-31T16:43:16;6.55;;;2.17;;
55003;SDS011;40900;52.710;6.438;2023-03-31T16:45:44;6.53;;;1.90;;
55003;SDS011;40900;52.710;6.438;2023-03-31T16:48:12;6.72;;;2.00;;
55003;SDS011;40900;52.710;6.438;2023-03-31T16:50:38;9.70;;;2.35;;
55003;SDS011;40900;52.710;6.438;2023-03-31T16:53:05;9.30;;;2.40;;
55003;SDS011;40900;52.710;6.438;2023-03-31T16:55:31;9.15;;;2.92;;
55003;SDS011;40900;52.710;6.438;2023-03-31T16:57:57;6.88;;;2.00;;
55003;SDS011;40900;52.710;6.438;2023-03-31T17:00:27;8.60;;;2.13;;
55003;SDS011;40900;52.710;6.438;2023-03-31T17:02:54;7.80;;;2.13;;
55003;SDS011;40900;52.710;6.438;2023-03-31T17:05:21;8.73;;;2.22;;
55003;SDS011;40900;52.710;6.438;2023-03-31T17:07:47;8.20;;;2.45;;
55003;SDS011;40900;52.710;6.438;2023-03-31T17:10:13;7.97;;;2.25;;
55003;SDS011;40900;52.710;6.438;2023-03-31T17:12:39;7.05;;;2.38;;
55003;SDS011;40900;52.710;6.438;2023-03-31T17:15:05;7.55;;;2.50;;
55003;SDS011;40900;52.710;6.438;2023-03-31T17:17:31;10.70;;;2.97;;
55003;SDS011;40900;52.710;6.438;2023-03-31T17:19:57;8.70;;;2.63;;
55003;SDS011;40900;52.710;6.438;2023-03-31T17:22:23;8.25;;;2.67;;
55003;SDS011;40900;52.710;6.438;2023-03-31T17:24:49;8.55;;;2.30;;
55003;SDS011;40900;52.710;6.438;2023-03-31T17:27:21;8.65;;;2.70;;
55003;SDS011;40900;52.710;6.438;2023-03-31T17:29:47;10.43;;;2.28;;
55003;SDS011;40900;52.710;6.438;2023-03-31T17:32:12;9.30;;;2.33;;
55003;SDS011;40900;52.710;6.438;2023-03-31T17:34:39;6.75;;;2.03;;
55003;SDS011;40900;52.710;6.438;2023-03-31T17:37:05;9.52;;;1.80;;
55003;SDS011;40900;52.710;6.438;2023-03-31T17:39:31;7.50;;;2.10;;
55003;SDS011;40900;52.710;6.438;2023-03-31T17:41:56;5.47;;;2.05;;
55003;SDS011;40900;52.710;6.438;2023-03-31T17:44:22;5.68;;;1.90;;
55003;SDS011;40900;52.710;6.438;2023-03-31T17:46:48;10.73;;;2.72;;
55003;SDS011;40900;52.710;6.438;2023-03-31T17:49:14;6.82;;;2.05;;
55003;SDS011;40900;52.710;6.438;2023-03-31T17:51:41;6.57;;;2.45;;
55003;SDS011;40900;52.710;6.438;2023-03-31T17:54:08;6.70;;;2.40;;
55003;SDS011;40900;52.710;6.438;2023-03-31T17:56:35;7.45;;;2.72;;
55003;SDS011;40900;52.710;6.438;2023-03-31T17:59:02;8.13;;;2.60;;
55003;SDS011;40900;52.710;6.438;2023-03-31T18:01:28;7.93;;;2.60;;
55003;SDS011;40900;52.710;6.438;2023-03-31T18:03:55;6.78;;;2.65;;
55003;SDS011;40900;52.710;6.438;2023-03-31T18:06:21;10.05;;;2.67;;
55003;SDS011;40900;52.710;6.438;2023-03-31T18:08:49;13.55;;;3.10;;
55003;SDS011;40900;52.710;6.438;2023-03-31T18:11:15;6.40;;;2.42;;
55003;SDS011;40900;52.710;6.438;2023-03-31T18:13:41;6.07;;;2.40;;
55003;SDS011;40900;52.710;6.438;2023-03-31T18:16:07;9.70;;;3.08;;
55003;SDS011;40900;52.710;6.438;2023-03-31T18:18:35;7.72;;;3.10;;
55003;SDS011;40900;52.710;6.438;2023-03-31T18:21:02;7.15;;;2.78;;